Time;durP1;ratioP1;P1;durP2;ratioP2;P2;SDS_P1;SDS_P2;PMS_P1;PMS_P2;Temp;Humidity;BMP_temperature;BMP_pressure;BME280_temperature;BME280_humidity;BME280_pressure;Samples;Min_cycle;Max_cycle;Signal;HPM_P1;HPM_P2
2022/05/09 00:02:02;;;;;;;7.88;3.85;;;9.60;53.80;;;;;;5033086;28;20205;-55
2022/05/09 00:04:30;;;;;;;7.40;2.75;;;9.60;53.90;;;;;;5033232;28;20198;-56
2022/05/09 00:06:58;;;;;;;4.57;3.00;;;9.60;54.00;;;;;;5032877;28;20237;-57
2022/05/09 00:09:25;;;;;;;5.65;3.60;;;9.60;54.00;;;;;;5033440;28;20557;-57
2022/05/09 00:11:52;;;;;;;4.95;3.55;;;9.60;54.00;;;;;;5033436;28;20210;-56
2022/05/09 00:14:20;;;;;;;3.80;3.17;;;9.60;53.90;;;;;;5032971;28;20233;-56
2022/05/09 00:16:50;;;;;;;5.93;3.58;;;9.60;54.10;;;;;;5036102;28;20206;-57
2022/05/09 00:19:18;;;;;;;8.18;3.08;;;9.60;54.10;;;;;;5037042;28;20233;-56
2022/05/09 00:21:46;;;;;;;5.50;2.72;;;9.60;54.20;;;;;;5033867;28;20275;-55
2022/05/09 00:24:14;;;;;;;6.97;3.20;;;9.50;54.40;;;;;;5034023;28;20194;-55
2022/05/09 00:26:42;;;;;;;5.90;3.35;;;9.50;54.40;;;;;;5037820;28;20301;-57
2022/05/09 00:29:10;;;;;;;6.60;3.00;;;9.50;54.60;;;;;;5038313;28;20202;-55
2022/05/09 00:31:38;;;;;;;5.22;2.83;;;9.40;54.80;;;;;;5038496;28;20198;-56
2022/05/09 00:34:06;;;;;;;6.70;2.97;;;9.40;54.90;;;;;;5038019;28;20682;-56
2022/05/09 00:36:33;;;;;;;7.57;3.20;;;9.40;55.00;;;;;;5037817;28;20206;-56
2022/05/09 00:39:01;;;;;;;5.20;3.33;;;9.40;55.10;;;;;;5037600;28;20230;-56
2022/05/09 00:41:31;;;;;;;6.13;3.13;;;9.30;55.30;;;;;;5038203;28;20202;-56
2022/05/09 00:44:01;;;;;;;3.95;2.40;;;9.20;55.50;;;;;;5038449;28;20548;-57
2022/05/09 00:46:29;;;;;;;7.20;3.40;;;9.20;55.70;;;;;;5038268;28;20297;-56
2022/05/09 00:49:00;;;;;;;5.65;2.78;;;9.10;55.90;;;;;;5038739;28;20321;-55
2022/05/09 00:51:29;;;;;;;8.98;2.90;;;9.10;56.10;;;;;;5039414;28;20197;-55
2022/05/09 00:54:00;;;;;;;6.05;3.33;;;9.10;56.50;;;;;;5039053;28;20760;-56
2022/05/09 00:56:33;;;;;;;7.63;3.58;;;9.00;56.60;;;;;;5039371;28;20243;-56
2022/05/09 00:59:04;;;;;;;5.35;2.92;;;9.00;56.70;;;;;;5039699;28;20222;-57
2022/05/09 01:01:31;;;;;;;9.73;3.45;;;9.00;57.00;;;;;;5040444;28;20194;-55
2022/05/09 01:04:04;;;;;;;4.32;3.25;;;9.00;57.10;;;;;;5040494;28;20202;-56
2022/05/09 01:06:32;;;;;;;6.18;3.28;;;9.00;57.30;;;;;;5039696;28;20193;-57
2022/05/09 01:08:59;;;;;;;4.28;2.70;;;8.90;57.40;;;;;;5040220;28;20321;-56
2022/05/09 01:11:29;;;;;;;7.88;2.88;;;8.90;57.70;;;;;;5039159;28;20222;-56
2022/05/09 01:14:03;;;;;;;8.75;3.20;;;8.80;57.90;;;;;;5040194;28;20210;-57
2022/05/09 01:16:30;;;;;;;4.38;2.60;;;8.80;58.20;;;;;;5039320;28;20187;-55
2022/05/09 01:18:59;;;;;;;5.78;2.30;;;8.70;58.40;;;;;;5038259;28;20241;-55
2022/05/09 01:21:34;;;;;;;5.85;3.33;;;8.70;58.70;;;;;;5039047;28;20206;-55
2022/05/09 01:24:02;;;;;;;7.72;3.45;;;8.70;58.90;;;;;;5038546;28;20638;-57
2022/05/09 01:26:29;;;;;;;6.30;3.00;;;8.60;59.00;;;;;;5037387;28;20202;-56
2022/05/09 01:29:01;;;;;;;7.15;3.20;;;8.60;59.30;;;;;;5036311;28;20287;-57
2022/05/09 01:31:28;;;;;;;7.57;3.35;;;8.60;59.40;;;;;;5035833;28;20191;-57
2022/05/09 01:33:58;;;;;;;5.38;2.45;;;8.60;60.10;;;;;;5036013;28;20215;-56
2022/05/09 01:36:28;;;;;;;8.73;3.05;;;8.60;59.60;;;;;;5036133;28;20583;-56
2022/05/09 01:39:00;;;;;;;4.35;2.97;;;8.60;59.90;;;;;;5036246;28;20251;-56
2022/05/09 01:41:29;;;;;;;5.07;2.83;;;8.60;60.00;;;;;;5036694;28;20182;-56
2022/05/09 01:43:57;;;;;;;3.38;3.00;;;8.60;60.10;;;;;;5036556;28;20202;-56
2022/05/09 01:46:26;;;;;;;8.30;2.80;;;8.60;60.20;;;;;;5037220;28;20212;-55
2022/05/09 01:51:39;;;;;;;7.53;3.65;;;8.50;60.80;;;;;;5037176;28;20192;-55
2022/05/09 01:54:08;;;;;;;6.45;2.90;;;8.40;61.20;;;;;;5035396;28;20209;-56
2022/05/09 01:56:37;;;;;;;9.30;3.38;;;8.40;61.60;;;;;;5036247;28;20202;-54
2022/05/09 01:59:06;;;;;;;7.53;3.60;;;8.30;62.00;;;;;;5036062;28;20205;-55
2022/05/09 02:01:37;;;;;;;4.95;2.97;;;8.30;62.30;;;;;;5036106;28;20217;-55
2022/05/09 02:04:04;;;;;;;6.35;3.55;;;8.30;62.70;;;;;;5035476;28;20186;-56
2022/05/09 02:06:32;;;;;;;4.85;2.80;;;8.30;63.10;;;;;;5036117;28;20209;-57
2022/05/09 02:08:59;;;;;;;9.07;3.40;;;8.20;63.30;;;;;;5035946;28;20230;-56
2022/05/09 02:11:27;;;;;;;4.15;3.15;;;8.20;63.70;;;;;;5036298;28;20206;-55
2022/05/09 02:13:54;;;;;;;5.28;3.22;;;8.20;64.10;;;;;;5036594;28;20202;-56
2022/05/09 02:16:22;;;;;;;5.70;3.10;;;8.10;64.60;;;;;;5035556;28;20226;-54
2022/05/09 02:18:49;;;;;;;7.55;3.60;;;8.10;65.00;;;;;;5035155;28;20240;-57
2022/05/09 02:21:16;;;;;;;12.07;3.22;;;8.10;65.70;;;;;;5035174;28;20209;-56
2022/05/09 02:23:43;;;;;;;5.95;3.95;;;8.00;66.00;;;;;;5035094;28;20216;-56
2022/05/09 02:26:10;;;;;;;12.00;3.80;;;7.90;66.50;;;;;;5034667;28;20235;-56
2022/05/09 02:28:39;;;;;;;4.75;3.17;;;7.90;67.10;;;;;;5034634;28;20235;-56
2022/05/09 02:31:06;;;;;;;3.45;2.83;;;7.90;67.90;;;;;;5036448;28;20210;-56
2022/05/09 02:33:33;;;;;;;6.97;3.95;;;7.80;68.30;;;;;;5035094;28;20206;-55
2022/05/09 02:36:01;;;;;;;13.45;4.05;;;7.80;69.70;;;;;;5035232;28;20225;-55
2022/05/09 02:38:29;;;;;;;6.65;3.55;;;7.80;69.60;;;;;;5034833;28;20235;-56
2022/05/09 02:40:57;;;;;;;5.25;3.53;;;7.80;70.30;;;;;;5035376;28;20211;-56
2022/05/09 02:43:24;;;;;;;5.60;3.25;;;7.70;70.70;;;;;;5035403;28;20215;-56
2022/05/09 02:45:55;;;;;;;7.85;3.28;;;7.60;71.20;;;;;;5035643;28;20204;-56
2022/05/09 02:48:22;;;;;;;5.75;3.50;;;7.60;71.90;;;;;;5037378;28;20259;-55
2022/05/09 02:50:49;;;;;;;5.72;3.45;;;7.60;72.50;;;;;;5037430;28;20212;-57
2022/05/09 02:53:16;;;;;;;10.70;4.07;;;7.60;73.20;;;;;;5036574;28;20198;-55
2022/05/09 02:55:43;;;;;;;7.45;3.90;;;7.50;73.60;;;;;;5036809;28;20228;-57
2022/05/09 02:58:11;;;;;;;6.03;4.10;;;7.50;74.20;;;;;;5035777;28;20236;-56
2022/05/09 03:00:38;;;;;;;8.18;3.60;;;7.40;74.60;;;;;;5035042;28;20692;-56
2022/05/09 03:05:51;;;;;;;6.97;2.78;;;7.40;75.80;;;;;;5034382;28;20183;-55
2022/05/09 03:08:18;;;;;;;4.55;3.28;;;7.30;76.10;;;;;;5033837;28;20234;-56
2022/05/09 03:10:46;;;;;;;6.55;3.35;;;7.30;76.80;;;;;;5034157;28;20272;-56
2022/05/09 03:13:14;;;;;;;7.30;4.15;;;7.30;77.00;;;;;;5034076;28;20213;-56
2022/05/09 03:15:43;;;;;;;9.20;3.95;;;7.30;77.30;;;;;;5033621;28;20219;-55
2022/05/09 03:18:14;;;;;;;5.15;3.45;;;7.30;77.70;;;;;;5033547;28;20229;-56
2022/05/09 03:20:41;;;;;;;3.55;2.70;;;7.20;77.90;;;;;;5034089;28;20200;-56
2022/05/09 03:23:12;;;;;;;9.20;3.83;;;7.20;78.20;;;;;;5033825;28;20585;-56
2022/05/09 03:25:40;;;;;;;3.80;3.00;;;7.20;78.70;;;;;;5033568;28;20219;-56
2022/05/09 03:28:10;;;;;;;8.20;3.63;;;7.20;78.90;;;;;;5033403;28;20230;-56
2022/05/09 03:30:38;;;;;;;10.40;3.50;;;7.20;79.00;;;;;;5033997;28;20207;-56
2022/05/09 03:33:06;;;;;;;8.48;4.00;;;7.20;79.20;;;;;;5034064;28;20198;-56
2022/05/09 03:35:35;;;;;;;4.40;3.55;;;7.10;79.30;;;;;;5033740;28;20322;-56
2022/05/09 03:38:02;;;;;;;6.75;3.90;;;7.10;79.50;;;;;;5033735;28;20223;-55
2022/05/09 03:40:29;;;;;;;6.00;3.40;;;7.20;79.80;;;;;;5034016;28;20213;-56
2022/05/09 03:42:59;;;;;;;5.85;3.38;;;7.10;79.80;;;;;;5033616;28;20249;-56
2022/05/09 03:45:26;;;;;;;5.97;3.00;;;7.20;80.10;;;;;;5033511;28;20198;-55
2022/05/09 03:47:54;;;;;;;8.07;3.38;;;7.10;80.10;;;;;;5033875;28;20228;-55
2022/05/09 03:50:22;;;;;;;6.97;4.00;;;7.20;80.20;;;;;;5033709;28;20574;-55
2022/05/09 03:52:51;;;;;;;6.22;3.58;;;7.20;80.10;;;;;;5034044;28;20202;-56
2022/05/09 03:55:18;;;;;;;9.32;3.63;;;7.20;80.20;;;;;;5033632;28;20219;-56
2022/05/09 03:57:47;;;;;;;9.82;3.30;;;7.20;80.40;;;;;;5034018;28;20229;-56
2022/05/09 04:00:18;;;;;;;7.13;3.25;;;7.20;80.30;;;;;;5033212;28;20198;-54
2022/05/09 04:02:45;;;;;;;5.07;3.13;;;7.30;80.40;;;;;;5033750;28;20207;-56
2022/05/09 04:05:15;;;;;;;5.70;3.78;;;7.30;80.40;;;;;;5033554;28;20200;-56
2022/05/09 04:09:43;;;;;;;6.93;3.95;;;7.30;80.10;;;;;;5112717;27;20619;-58
2022/05/09 04:12:11;;;;;;;6.85;3.60;;;7.40;80.50;;;;;;5112448;28;20208;-59
2022/05/09 04:17:22;;;;;;;6.03;3.85;;;8.00;80.70;;;;;;5115564;28;20605;-59
2022/05/09 04:19:49;;;;;;;8.70;4.20;;;8.40;79.40;;;;;;5113678;28;20250;-57
2022/05/09 04:22:16;;;;;;;6.05;3.33;;;8.80;78.00;;;;;;5113555;28;20200;-58
2022/05/09 04:24:45;;;;;;;6.13;3.53;;;9.20;76.60;;;;;;5112319;28;20206;-58
2022/05/09 04:27:12;;;;;;;10.30;3.97;;;9.60;74.80;;;;;;5112356;28;20298;-58
2022/05/09 04:29:39;;;;;;;6.80;3.20;;;9.90;73.10;;;;;;5112118;28;20221;-58
2022/05/09 04:32:07;;;;;;;5.20;3.53;;;10.20;70.60;;;;;;5111934;28;20554;-58
2022/05/09 04:34:34;;;;;;;6.83;2.90;;;10.40;69.00;;;;;;5112560;28;20447;-58
2022/05/09 04:37:01;;;;;;;7.17;3.93;;;10.60;67.80;;;;;;5111959;28;20960;-57
2022/05/09 04:39:28;;;;;;;6.20;3.70;;;10.90;66.60;;;;;;5113807;28;20833;-60
2022/05/09 04:41:57;;;;;;;6.97;3.00;;;11.10;65.40;;;;;;5113467;28;20446;-58
2022/05/09 04:44:24;;;;;;;5.60;3.87;;;11.30;64.30;;;;;;5112964;28;20441;-57
2022/05/09 04:46:51;;;;;;;8.57;4.37;;;11.50;63.10;;;;;;5114178;28;20468;-58
2022/05/09 04:49:18;;;;;;;6.40;3.83;;;11.70;62.00;;;;;;5113740;28;20473;-58
2022/05/09 04:51:45;;;;;;;12.47;4.77;;;11.70;61.30;;;;;;5113906;28;20445;-57
2022/05/09 04:54:14;;;;;;;7.10;3.90;;;11.70;60.90;;;;;;5114398;28;20455;-59
2022/05/09 04:56:41;;;;;;;7.83;3.37;;;11.80;60.40;;;;;;5113757;28;20475;-59
2022/05/09 04:59:10;;;;;;;19.70;3.80;;;11.80;60.00;;;;;;5113512;28;20464;-58
2022/05/09 05:01:37;;;;;;;7.83;4.30;;;11.80;59.40;;;;;;5113404;28;20446;-58
2022/05/09 05:04:06;;;;;;;7.03;4.03;;;11.90;59.10;;;;;;5112336;28;20449;-58
2022/05/09 05:06:33;;;;;;;10.43;5.03;;;12.00;58.70;;;;;;5114334;28;20452;-59
2022/05/09 05:09:00;;;;;;;7.43;3.80;;;12.10;58.30;;;;;;5121621;28;20482;-59
2022/05/09 05:11:27;;;;;;;13.37;4.43;;;12.30;57.80;;;;;;5122509;28;20448;-59
2022/05/09 05:13:54;;;;;;;5.00;3.40;;;12.40;57.20;;;;;;5119587;28;20437;-59
2022/05/09 05:16:59;;;;;;;11.50;3.70;;;12.60;56.60;;;;;;5119625;28;20444;-59
2022/05/09 05:19:10;;;;;;;10.63;3.90;;;12.70;56.30;;;;;;5117109;28;20458;-59
2022/05/09 05:21:37;;;;;;;9.13;3.70;;;12.80;55.80;;;;;;5106756;28;20442;-57
2022/05/09 05:24:04;;;;;;;8.70;3.90;;;12.90;55.40;;;;;;5107441;28;20525;-59
2022/05/09 05:26:31;;;;;;;8.50;3.93;;;13.00;55.10;;;;;;5102373;28;20446;-58
2022/05/09 05:28:58;;;;;;;8.80;4.27;;;13.10;54.80;;;;;;5107978;28;20478;-57
2022/05/09 05:31:27;;;;;;;6.27;4.20;;;13.10;54.70;;;;;;5111721;28;20521;-59
2022/05/09 05:33:55;;;;;;;4.70;3.27;;;13.20;54.50;;;;;;5111828;28;20468;-58
2022/05/09 05:36:22;;;;;;;7.70;3.60;;;13.20;54.20;;;;;;5108274;28;20445;-58
2022/05/09 05:38:51;;;;;;;10.83;3.90;;;13.20;54.10;;;;;;5102561;28;20505;-58
2022/05/09 05:41:19;;;;;;;8.97;3.90;;;13.30;54.10;;;;;;5103653;28;20467;-58
2022/05/09 05:43:46;;;;;;;10.03;4.17;;;13.30;54.10;;;;;;5104202;28;20780;-56
2022/05/09 05:46:13;;;;;;;6.80;3.30;;;13.40;54.10;;;;;;5104255;28;20443;-57
2022/05/09 05:48:42;;;;;;;7.43;4.27;;;13.40;54.00;;;;;;5104522;28;20477;-59
2022/05/09 05:51:11;;;;;;;9.07;4.10;;;13.40;54.10;;;;;;5103979;28;20446;-59
2022/05/09 05:53:38;;;;;;;6.20;3.83;;;13.40;54.10;;;;;;5098682;28;20453;-59
2022/05/09 05:56:06;;;;;;;8.87;4.23;;;13.40;54.20;;;;;;5102227;28;20438;-59
2022/05/09 05:58:33;;;;;;;8.03;4.07;;;13.30;54.20;;;;;;5102781;28;20462;-61
2022/05/09 06:01:00;;;;;;;8.40;3.50;;;13.30;54.30;;;;;;5104948;28;20442;-58
2022/05/09 06:03:28;;;;;;;11.40;4.23;;;13.20;54.10;;;;;;5102893;28;20455;-58
2022/05/09 06:05:56;;;;;;;8.33;3.80;;;13.10;54.20;;;;;;5099599;28;20865;-59
2022/05/09 06:08:23;;;;;;;6.77;3.27;;;12.90;54.20;;;;;;5099125;28;20858;-58
2022/05/09 06:10:50;;;;;;;14.77;3.70;;;12.80;54.40;;;;;;5099508;28;20438;-59
2022/05/09 06:13:19;;;;;;;9.03;3.53;;;12.70;54.40;;;;;;5099255;28;20438;-60
2022/05/09 06:15:46;;;;;;;7.90;4.37;;;12.70;54.50;;;;;;5097641;28;20530;-58
2022/05/09 06:18:13;;;;;;;10.03;3.90;;;12.70;54.50;;;;;;5096450;28;20466;-58
2022/05/09 06:20:44;;;;;;;7.73;4.20;;;12.70;54.50;;;;;;5097721;28;20450;-57
2022/05/09 06:23:16;;;;;;;6.60;3.80;;;12.80;54.50;;;;;;5098074;28;20452;-57
2022/05/09 06:25:46;;;;;;;8.43;4.67;;;12.80;54.50;;;;;;5098309;28;20844;-60
2022/05/09 06:28:15;;;;;;;11.03;4.20;;;12.80;54.40;;;;;;5095825;28;20592;-58
2022/05/09 06:30:42;;;;;;;7.90;4.70;;;12.80;54.50;;;;;;5096031;28;20503;-59
2022/05/09 06:33:10;;;;;;;6.67;3.90;;;12.90;54.60;;;;;;5096241;28;20446;-58
2022/05/09 06:35:41;;;;;;;8.50;3.90;;;13.00;54.50;;;;;;5099392;28;20446;-59
2022/05/09 06:38:08;;;;;;;10.27;3.70;;;13.10;54.40;;;;;;5102032;28;20467;-59
2022/05/09 06:40:36;;;;;;;9.60;4.30;;;13.20;54.40;;;;;;5112381;28;20439;-59
2022/05/09 06:43:05;;;;;;;9.83;4.00;;;13.20;54.40;;;;;;5113867;28;20438;-58
2022/05/09 06:45:33;;;;;;;7.73;4.27;;;13.20;54.40;;;;;;5114537;28;20446;-58
2022/05/09 06:48:01;;;;;;;10.43;4.60;;;13.40;54.20;;;;;;5112074;28;20463;-58
2022/05/09 06:50:32;;;;;;;12.10;4.37;;;13.40;54.00;;;;;;5112669;28;20435;-60
2022/05/09 06:52:59;;;;;;;6.13;3.30;;;13.60;53.90;;;;;;5105059;28;20454;-61
2022/05/09 06:55:27;;;;;;;9.40;4.60;;;13.80;53.70;;;;;;5105437;28;20447;-59
2022/05/09 06:57:55;;;;;;;5.87;3.37;;;13.90;53.40;;;;;;5108284;28;20526;-59
2022/05/09 07:00:24;;;;;;;12.43;3.73;;;14.00;53.20;;;;;;5108716;28;20438;-60
2022/05/09 07:02:52;;;;;;;8.93;4.53;;;14.10;53.00;;;;;;5110146;28;20445;-59
2022/05/09 07:05:21;;;;;;;9.57;3.93;;;14.30;53.00;;;;;;5111452;28;20450;-58
2022/05/09 07:07:48;;;;;;;9.20;4.00;;;14.40;52.90;;;;;;5105251;28;20580;-59
2022/05/09 07:10:17;;;;;;;9.20;3.83;;;14.50;52.60;;;;;;5098331;28;20478;-59
2022/05/09 07:12:44;;;;;;;8.97;3.80;;;14.70;52.30;;;;;;5097504;28;20453;-59
2022/05/09 07:15:15;;;;;;;7.20;3.70;;;14.80;51.90;;;;;;5095999;28;20450;-59
2022/05/09 07:17:42;;;;;;;5.90;3.77;;;14.90;51.60;;;;;;5098085;28;20834;-59
2022/05/09 07:20:10;;;;;;;11.93;4.57;;;14.90;51.40;;;;;;5096395;28;20438;-60
2022/05/09 07:22:37;;;;;;;9.40;3.40;;;15.00;51.10;;;;;;5098750;28;20434;-59
2022/05/09 07:25:05;;;;;;;9.83;4.03;;;15.00;50.90;;;;;;5101417;28;20446;-59
2022/05/09 07:27:32;;;;;;;9.27;4.40;;;15.10;50.90;;;;;;5097618;28;20980;-59
2022/05/09 07:29:59;;;;;;;10.00;4.10;;;15.20;50.70;;;;;;5101357;28;20478;-59
2022/05/09 07:32:28;;;;;;;6.07;3.80;;;15.30;50.50;;;;;;5103551;28;20473;-58
2022/05/09 07:34:55;;;;;;;8.97;4.00;;;15.40;50.30;;;;;;5103162;28;20434;-58
2022/05/09 07:37:22;;;;;;;8.03;4.27;;;15.60;50.10;;;;;;5103227;28;20462;-58
2022/05/09 07:39:49;;;;;;;9.43;4.37;;;15.70;49.90;;;;;;5102003;28;20473;-59
2022/05/09 07:42:16;;;;;;;11.47;4.80;;;15.80;49.80;;;;;;5100722;28;20454;-60
2022/05/09 07:44:43;;;;;;;8.30;4.87;;;15.90;49.80;;;;;;5097653;28;20450;-59
2022/05/09 07:47:11;;;;;;;9.83;4.73;;;16.00;49.90;;;;;;5096118;28;20446;-59
2022/05/09 07:49:39;;;;;;;6.97;3.93;;;16.10;49.80;;;;;;5097231;28;20538;-60
2022/05/09 07:52:08;;;;;;;7.03;4.10;;;16.20;49.70;;;;;;5095755;28;20453;-58
2022/05/09 07:54:35;;;;;;;8.10;4.10;;;16.20;49.60;;;;;;5097478;28;20450;-59
2022/05/09 07:57:02;;;;;;;8.80;4.00;;;16.30;49.50;;;;;;5097294;28;20442;-59
2022/05/09 07:59:29;;;;;;;8.33;4.00;;;16.40;49.30;;;;;;5097202;28;20462;-59
2022/05/09 08:01:56;;;;;;;6.33;3.47;;;16.40;48.90;;;;;;5100647;28;20446;-59
2022/05/09 08:04:24;;;;;;;8.83;4.17;;;16.50;48.60;;;;;;5100156;28;20446;-60
2022/05/09 08:06:52;;;;;;;9.13;4.30;;;16.70;48.50;;;;;;5098578;28;20950;-59
2022/05/09 08:09:19;;;;;;;6.50;3.43;;;16.80;48.10;;;;;;5097300;28;20513;-59
2022/05/09 08:11:47;;;;;;;5.57;3.70;;;17.00;47.80;;;;;;5098500;28;20810;-59
2022/05/09 08:14:14;;;;;;;8.63;3.83;;;17.10;47.50;;;;;;5098081;28;20809;-60
2022/05/09 08:16:41;;;;;;;8.10;3.50;;;17.30;47.40;;;;;;5097016;28;20441;-58
2022/05/09 08:19:08;;;;;;;8.33;3.77;;;17.50;47.10;;;;;;5096872;28;20992;-59
2022/05/09 08:21:36;;;;;;;9.20;3.77;;;17.70;46.70;;;;;;5096830;28;20519;-60
2022/05/09 08:24:05;;;;;;;10.40;4.10;;;17.80;46.40;;;;;;5096169;28;20466;-59
2022/05/09 08:26:33;;;;;;;9.40;3.50;;;17.90;46.20;;;;;;5095820;28;20449;-60
2022/05/09 08:29:00;;;;;;;10.20;4.05;;;18.00;45.90;;;;;;5095097;28;20445;-58
2022/05/09 08:31:28;;;;;;;7.97;3.47;;;18.00;45.80;;;;;;5094198;28;20200;-59
2022/05/09 08:33:56;;;;;;;8.00;3.53;;;18.10;45.60;;;;;;5093481;28;20461;-60
2022/05/09 08:39:09;;;;;;;8.70;4.10;;;18.20;44.90;;;;;;5097290;28;20437;-60
2022/05/09 08:41:43;;;;;;;9.10;4.37;;;18.30;44.70;;;;;;5100659;28;20480;-60
2022/05/09 08:44:22;;;;;;;6.63;3.13;;;18.30;44.50;;;;;;5103507;28;20431;-59
2022/05/09 08:47:12;;;;;;;7.47;3.20;;;18.50;44.30;;;;;;5098924;28;20522;-59
2022/05/09 08:49:49;;;;;;;11.60;4.03;;;18.60;43.70;;;;;;5094913;28;21005;-59
2022/05/09 08:52:24;;;;;;;4.53;3.10;;;18.70;43.30;;;;;;5090744;28;20451;-59
2022/05/09 08:54:55;;;;;;;6.90;3.50;;;18.80;43.10;;;;;;5079629;28;20427;-59
2022/05/09 08:57:25;;;;;;;6.83;3.10;;;18.80;42.60;;;;;;5079466;28;20427;-60
2022/05/09 08:59:58;;;;;;;8.43;3.73;;;18.90;42.30;;;;;;5083898;28;20447;-61
2022/05/09 09:02:33;;;;;;;7.50;3.37;;;19.10;41.80;;;;;;5102352;28;20479;-61
2022/05/09 09:05:03;;;;;;;6.13;3.57;;;19.20;41.20;;;;;;5099440;28;20812;-57
2022/05/09 09:07:58;;;;;;;9.70;3.70;;;19.30;40.60;;;;;;5099905;28;20837;-58
2022/05/09 09:10:32;;;;;;;7.53;2.97;;;19.40;40.00;;;;;;5098985;28;20474;-61
2022/05/09 09:13:09;;;;;;;6.10;3.57;;;19.60;39.60;;;;;;5098347;28;20502;-58
2022/05/09 09:15:49;;;;;;;6.90;3.23;;;19.70;39.40;;;;;;5098228;28;20430;-59
2022/05/09 09:18:31;;;;;;;6.50;3.07;;;19.70;38.80;;;;;;5098411;28;20496;-59
2022/05/09 09:21:02;;;;;;;10.03;3.50;;;19.90;38.60;;;;;;5097019;28;20832;-62
2022/05/09 09:24:03;;;;;;;4.70;3.10;;;20.00;38.20;;;;;;5097634;28;20780;-59
2022/05/09 09:26:39;;;;;;;6.60;3.20;;;19.90;37.40;;;;;;5098526;28;20426;-58
2022/05/09 09:29:11;;;;;;;5.83;3.23;;;20.00;37.20;;;;;;5097329;28;21027;-61
2022/05/09 09:31:43;;;;;;;7.97;3.60;;;20.00;36.80;;;;;;5098687;28;20431;-60
2022/05/09 09:34:21;;;;;;;6.10;3.03;;;20.10;36.60;;;;;;5098552;28;20427;-57
2022/05/09 09:36:59;;;;;;;7.07;2.60;;;20.30;36.60;;;;;;5096704;28;20449;-60
2022/05/09 09:39:27;;;;;;;6.30;2.80;;;20.40;35.50;;;;;;5097076;28;20845;-59
2022/05/09 09:41:56;;;;;;;5.20;2.57;;;20.60;35.20;;;;;;5098404;28;20478;-59
2022/05/09 09:44:25;;;;;;;7.17;3.97;;;20.70;34.50;;;;;;5098417;28;20466;-59
2022/05/09 09:47:11;;;;;;;8.93;3.43;;;20.80;34.20;;;;;;5098647;28;20450;-58
2022/05/09 09:49:40;;;;;;;7.27;2.97;;;20.80;33.80;;;;;;5117082;28;20484;-59
2022/05/09 09:52:22;;;;;;;6.27;2.87;;;20.90;34.00;;;;;;5107000;28;20515;-58
2022/05/09 09:54:54;;;;;;;7.73;3.17;;;21.10;34.10;;;;;;5102370;28;20835;-59
2022/05/09 09:57:28;;;;;;;4.80;3.23;;;21.30;34.10;;;;;;5102582;28;20442;-59
2022/05/09 09:59:56;;;;;;;11.83;3.07;;;21.40;33.90;;;;;;5102697;28;20449;-59
2022/05/09 10:02:26;;;;;;;6.20;2.70;;;21.40;33.40;;;;;;5104493;28;20438;-59
2022/05/09 10:04:56;;;;;;;6.60;3.50;;;21.30;33.10;;;;;;5103765;28;20442;-58
2022/05/09 10:07:29;;;;;;;5.83;2.93;;;21.20;32.80;;;;;;5104370;28;20442;-60
2022/05/09 10:10:11;;;;;;;6.00;3.27;;;21.20;32.90;;;;;;5106925;28;20920;-58
2022/05/09 10:12:41;;;;;;;9.83;3.93;;;21.20;33.00;;;;;;5098044;22;20816;-61
2022/05/09 10:15:25;;;;;;;4.60;3.30;;;21.30;32.80;;;;;;5034335;28;20913;-59
2022/05/09 10:17:52;;;;;;;5.97;2.83;;;21.30;32.80;;;;;;5033670;28;20516;-62
2022/05/09 10:20:33;;;;;;;4.30;2.73;;;21.30;32.70;;;;;;5035280;28;20445;-62
2022/05/09 10:25:59;;;;;;;7.83;3.10;;;21.30;33.10;;;;;;5022793;28;20551;-61
2022/05/09 10:28:31;;;;;;;10.63;3.20;;;21.50;33.40;;;;;;5035283;28;20451;-62
2022/05/09 10:31:10;;;;;;;6.30;3.23;;;21.70;33.30;;;;;;5033282;28;20476;-63
2022/05/09 10:33:42;;;;;;;4.90;3.00;;;21.80;33.20;;;;;;5035239;28;20531;-64
2022/05/09 10:36:16;;;;;;;5.30;2.90;;;21.90;33.20;;;;;;5034383;28;20422;-63
2022/05/09 10:38:49;;;;;;;6.50;2.70;;;22.00;33.00;;;;;;5034340;28;20457;-62
2022/05/09 10:41:23;;;;;;;6.13;2.60;;;22.10;33.10;;;;;;5034234;28;20422;-62
2022/05/09 10:43:58;;;;;;;5.43;3.03;;;22.10;32.90;;;;;;5033877;28;20829;-62
2022/05/09 10:46:36;;;;;;;4.50;3.07;;;22.20;32.90;;;;;;5033356;28;20457;-64
2022/05/09 10:49:09;;;;;;;5.17;2.60;;;22.20;33.00;;;;;;5034068;28;20429;-63
2022/05/09 10:51:46;;;;;;;4.83;2.83;;;22.20;32.90;;;;;;5034045;28;20508;-61
2022/05/09 10:54:18;;;;;;;5.73;3.07;;;22.20;32.90;;;;;;5033434;28;20433;-60
2022/05/09 10:56:49;;;;;;;5.27;3.00;;;22.20;32.90;;;;;;5033373;28;20460;-61
2022/05/09 10:59:21;;;;;;;5.17;3.27;;;22.30;33.00;;;;;;5033043;28;20555;-60
2022/05/09 11:01:56;;;;;;;5.50;2.40;;;22.50;32.90;;;;;;5034335;28;20432;-63
2022/05/09 11:04:24;;;;;;;6.60;2.83;;;22.60;32.80;;;;;;5034331;28;20482;-62
2022/05/09 11:06:59;;;;;;;5.63;2.60;;;22.80;32.70;;;;;;5032967;28;20452;-63
2022/05/09 11:09:51;;;;;;;4.00;2.17;;;22.80;32.50;;;;;;5034260;28;20432;-63
2022/05/09 11:12:38;;;;;;;5.53;1.80;;;22.90;32.60;;;;;;5032336;28;20864;-62
2022/05/09 11:15:16;;;;;;;5.83;2.40;;;23.10;32.60;;;;;;5035443;28;20451;-63
2022/05/09 11:18:16;;;;;;;4.00;1.90;;;23.20;32.40;;;;;;5035842;28;20436;-62
2022/05/09 11:20:52;;;;;;;6.13;2.50;;;23.20;32.40;;;;;;5022840;28;20486;-64
2022/05/09 11:23:32;;;;;;;5.40;3.10;;;23.20;32.50;;;;;;5035932;28;20564;-63
2022/05/09 11:26:07;;;;;;;6.50;2.80;;;23.20;32.60;;;;;;5034753;28;20527;-63
2022/05/09 11:29:06;;;;;;;4.73;2.30;;;23.30;32.70;;;;;;5035176;28;20512;-64
2022/05/09 11:31:47;;;;;;;5.00;2.83;;;23.30;32.40;;;;;;5008665;28;20562;-62
2022/05/09 11:34:27;;;;;;;5.73;2.20;;;23.10;32.40;;;;;;5033976;28;20437;-62
2022/05/09 11:37:06;;;;;;;4.95;2.40;;;23.10;32.70;;;;;;5033405;28;20444;-61
2022/05/09 11:39:45;;;;;;;5.50;2.97;;;23.30;32.90;;;;;;5033716;28;20213;-61
2022/05/09 11:45:16;;;;;;;8.17;2.50;;;23.50;32.50;;;;;;5034304;28;20448;-61
2022/05/09 11:47:54;;;;;;;6.63;3.53;;;23.60;32.40;;;;;;5032972;28;20436;-62
2022/05/09 11:50:39;;;;;;;4.40;3.03;;;24.00;32.10;;;;;;5034993;28;20480;-61
2022/05/09 11:53:08;;;;;;;6.57;2.53;;;24.50;31.50;;;;;;5023084;28;20477;-62
2022/05/09 11:55:37;;;;;;;8.32;3.08;;;25.10;30.90;;;;;;5013591;28;20461;-63
2022/05/09 11:58:05;;;;;;;6.53;2.67;;;25.80;30.40;;;;;;5015172;28;20210;-61
2022/05/09 12:00:52;;;;;;;4.70;2.90;;;26.40;29.90;;;;;;5014009;28;20820;-62
2022/05/09 12:04:05;;;;;;;4.67;2.30;;;26.80;29.40;;;;;;5012426;28;20562;-64
2022/05/09 12:06:42;;;;;;;7.20;2.97;;;27.00;29.00;;;;;;5012989;28;20929;-62
2022/05/09 12:09:11;;;;;;;9.87;2.93;;;27.00;29.00;;;;;;5013180;28;20440;-64
2022/05/09 12:11:52;;;;;;;7.80;2.73;;;27.30;28.90;;;;;;5012263;28;20489;-62
2022/05/09 12:14:40;;;;;;;4.87;2.87;;;27.50;28.50;;;;;;5013218;28;20430;-62
2022/05/09 12:17:21;;;;;;;6.73;2.60;;;27.60;28.50;;;;;;5011881;28;20449;-61
2022/05/09 12:19:48;;;;;;;7.17;2.33;;;27.70;28.00;;;;;;5013281;28;20461;-62
2022/05/09 12:22:49;;;;;;;5.87;2.77;;;27.30;28.10;;;;;;5013980;28;20498;-64
2022/05/09 12:26:00;;;;;;;4.13;1.97;;;27.10;28.50;;;;;;5012469;28;20454;-63
2022/05/09 12:28:30;;;;;;;3.30;2.53;;;26.90;28.70;;;;;;5012864;28;20434;-63
2022/05/09 12:30:59;;;;;;;4.53;2.50;;;26.60;29.10;;;;;;5015612;28;20477;-62
2022/05/09 12:33:34;;;;;;;7.37;5.00;;;26.10;29.40;;;;;;5016340;28;20473;-63
2022/05/09 12:36:10;;;;;;;4.30;3.17;;;25.70;29.90;;;;;;5016766;28;20421;-62
2022/05/09 12:38:41;;;;;;;5.63;3.00;;;25.30;30.30;;;;;;5017306;28;20465;-63
2022/05/09 12:41:12;;;;;;;5.97;2.87;;;24.90;30.80;;;;;;5016188;28;20492;-64
2022/05/09 12:43:43;;;;;;;7.40;2.67;;;24.60;31.20;;;;;;5016694;28;20478;-64
2022/05/09 12:46:20;;;;;;;4.37;3.17;;;24.30;31.70;;;;;;5016277;28;20453;-62
2022/05/09 12:48:47;;;;;;;5.30;2.67;;;24.20;32.20;;;;;;5016429;28;20429;-62
2022/05/09 12:51:16;;;;;;;4.83;3.07;;;24.20;32.40;;;;;;5017330;28;20441;-61
2022/05/09 12:53:44;;;;;;;8.37;3.73;;;24.20;32.20;;;;;;5017281;28;20488;-63
2022/05/09 12:56:16;;;;;;;11.00;8.73;;;24.20;32.50;;;;;;5016792;28;20453;-62
2022/05/09 12:58:46;;;;;;;7.23;4.13;;;24.20;32.60;;;;;;5016877;28;20434;-63
2022/05/09 13:01:18;;;;;;;5.00;2.73;;;24.30;32.70;;;;;;5016394;28;20492;-64
2022/05/09 13:03:48;;;;;;;4.47;2.73;;;24.50;32.70;;;;;;5016273;28;20532;-63
2022/05/09 13:06:17;;;;;;;4.67;2.80;;;24.50;32.30;;;;;;5016841;28;20454;-63
2022/05/09 13:08:46;;;;;;;7.77;2.47;;;24.60;32.30;;;;;;5016567;28;20456;-63
2022/05/09 13:11:17;;;;;;;2.57;2.27;;;24.60;32.30;;;;;;5016047;28;20451;-64
2022/05/09 13:14:00;;;;;;;5.40;2.50;;;24.60;32.30;;;;;;5015953;28;20989;-63
2022/05/09 13:16:32;;;;;;;2.93;2.23;;;24.60;32.30;;;;;;5016133;28;20500;-63
2022/05/09 13:19:00;;;;;;;4.10;1.93;;;24.60;31.90;;;;;;5016773;28;20553;-61
2022/05/09 13:21:31;;;;;;;6.53;2.27;;;24.30;31.90;;;;;;5016018;28;20481;-63
2022/05/09 13:24:03;;;;;;;6.50;2.80;;;24.10;32.20;;;;;;5016336;28;20454;-62
2022/05/09 13:26:31;;;;;;;4.70;2.90;;;24.10;32.60;;;;;;5016399;28;20838;-63